createdAt,value
2017-07-25T00:01:57.580Z,100167.59
2017-07-25T00:04:24.978Z,100164.18
2017-07-25T00:06:52.379Z,100156.30
2017-07-25T00:09:19.776Z,100154.55
2017-07-25T00:11:47.175Z,100155.47
2017-07-25T00:14:14.583Z,100151.84
2017-07-25T00:16:41.979Z,100149.11
2017-07-25T00:19:09.382Z,100148.55
2017-07-25T00:21:36.782Z,100145.45
2017-07-25T00:24:04.182Z,100143.14
2017-07-25T00:26:31.578Z,100141.72
2017-07-25T00:28:59.291Z,100139.67
2017-07-25T00:31:26.690Z,100130.49
2017-07-25T00:33:54.095Z,100121.14
2017-07-25T00:36:21.702Z,100122.48
2017-07-25T00:38:49.104Z,100123.98
2017-07-25T00:41:16.494Z,100121.91
2017-07-25T00:43:43.919Z,100122.97
2017-07-25T00:46:11.306Z,100114.48
2017-07-25T00:48:38.707Z,100116.22
2017-07-25T00:51:06.116Z,100110.23
2017-07-25T00:53:33.506Z,100109.23
2017-07-25T00:56:00.902Z,100106.59
2017-07-25T00:58:28.298Z,100109.80
2017-07-25T01:00:55.702Z,100101.97
2017-07-25T01:03:23.094Z,100107.00
2017-07-25T01:05:50.499Z,100103.95
2017-07-25T01:08:17.895Z,100111.78
2017-07-25T01:10:45.298Z,100103.56
2017-07-25T01:13:12.998Z,100103.31
2017-07-25T01:15:40.414Z,100104.31
2017-07-25T01:18:07.810Z,100103.89
2017-07-25T01:20:35.226Z,100103.62
2017-07-25T01:23:02.623Z,100104.84
2017-07-25T01:25:30.027Z,100091.86
2017-07-25T01:27:57.431Z,100097.66
2017-07-25T01:30:24.827Z,100093.44
2017-07-25T01:32:52.228Z,100089.58
2017-07-25T01:35:19.643Z,100082.62
2017-07-25T01:37:47.042Z,100087.47
2017-07-25T01:40:14.438Z,100080.77
2017-07-25T01:42:41.840Z,100083.53
2017-07-25T01:45:09.239Z,100079.94
2017-07-25T01:47:36.646Z,100077.63
2017-07-25T01:50:04.037Z,100073.41
2017-07-25T01:52:31.439Z,100070.49
2017-07-25T01:54:58.834Z,100076.49
2017-07-25T01:57:26.259Z,100069.64
2017-07-25T01:59:53.659Z,100069.36
2017-07-25T02:02:21.051Z,100067.43
2017-07-25T02:04:48.450Z,100069.12
2017-07-25T02:07:16.122Z,100068.84
2017-07-25T02:09:43.783Z,100068.39
2017-07-25T02:12:11.188Z,100066.00
2017-07-25T02:14:38.586Z,100063.38
2017-07-25T02:17:05.979Z,100065.52
2017-07-25T02:19:33.379Z,100064.88
2017-07-25T02:22:00.783Z,100072.42
2017-07-25T02:24:28.187Z,100075.19
2017-07-25T02:26:55.611Z,100075.69
2017-07-25T02:29:23.002Z,100073.44
2017-07-25T02:31:50.404Z,100070.48
2017-07-25T02:34:18.043Z,100069.09
2017-07-25T02:36:45.623Z,100068.95
2017-07-25T02:39:13.011Z,100069.38
2017-07-25T02:41:40.627Z,100056.84
2017-07-25T02:44:08.278Z,100059.88
2017-07-25T02:46:35.674Z,100062.41
2017-07-25T02:49:03.086Z,100063.69
2017-07-25T02:51:30.480Z,100057.05
2017-07-25T02:53:57.878Z,100058.75
2017-07-25T02:56:25.275Z,100060.83
2017-07-25T02:58:52.683Z,100053.89
2017-07-25T03:01:20.083Z,100059.73
2017-07-25T03:03:47.482Z,100055.48
2017-07-25T03:06:14.874Z,100051.31
2017-07-25T03:08:42.281Z,100050.93
2017-07-25T03:11:09.674Z,100050.09
2017-07-25T03:13:37.086Z,100050.09
2017-07-25T03:16:04.535Z,100050.14
2017-07-25T03:18:32.167Z,100045.38
2017-07-25T03:20:59.562Z,100053.25
2017-07-25T03:23:36.533Z,100048.87
2017-07-25T03:26:04.158Z,100046.31
2017-07-25T03:28:31.550Z,100043.13
2017-07-25T03:30:58.957Z,100041.17
2017-07-25T03:33:26.353Z,100039.09
2017-07-25T03:35:53.759Z,100038.62
2017-07-25T03:38:21.155Z,100038.38
2017-07-25T03:40:48.550Z,100034.55
2017-07-25T03:43:15.976Z,100035.91
2017-07-25T03:45:43.358Z,100036.84
2017-07-25T03:48:10.777Z,100027.84
2017-07-25T03:50:38.171Z,100023.98
2017-07-25T03:53:05.574Z,100029.84
2017-07-25T03:55:32.967Z,100022.06
2017-07-25T03:58:00.371Z,100021.84
2017-07-25T04:00:27.773Z,100025.66
2017-07-25T04:02:55.168Z,100017.04
2017-07-25T04:05:22.847Z,100020.27
2017-07-25T04:07:50.250Z,100017.09
2017-07-25T04:10:17.650Z,100019.34
2017-07-25T04:12:45.047Z,100015.73
2017-07-25T04:15:12.447Z,100012.18
2017-07-25T04:17:39.851Z,100008.54
2017-07-25T04:20:07.250Z,100008.88
2017-07-25T04:22:34.646Z,100005.41
2017-07-25T04:25:02.052Z,100005.02
2017-07-25T04:27:29.447Z,100007.29
2017-07-25T04:29:56.848Z,100002.26
2017-07-25T04:32:24.250Z,100002.34
2017-07-25T04:34:51.639Z,99997.48
2017-07-25T04:37:19.038Z,99995.11
2017-07-25T04:39:46.726Z,100000.50
2017-07-25T04:42:14.122Z,99998.37
2017-07-25T04:44:41.515Z,100004.61
2017-07-25T04:47:08.931Z,100003.95
2017-07-25T04:49:36.319Z,100006.44
2017-07-25T04:52:03.722Z,100008.38
2017-07-25T04:54:31.114Z,100001.62
2017-07-25T04:56:58.533Z,99994.52
2017-07-25T04:59:25.928Z,99992.69
2017-07-25T05:01:53.439Z,99996.08
2017-07-25T05:04:20.838Z,99994.98
2017-07-25T05:06:48.250Z,99985.97
2017-07-25T05:09:15.633Z,99990.05
2017-07-25T05:11:43.039Z,99990.80
2017-07-25T05:14:10.437Z,99986.37
2017-07-25T05:16:37.843Z,99983.80
2017-07-25T05:19:05.240Z,99991.58
2017-07-25T05:21:32.689Z,99989.43
2017-07-25T05:24:00.057Z,99994.40
2017-07-25T05:26:27.459Z,99977.77
2017-07-25T05:28:54.847Z,99986.20
2017-07-25T05:31:22.330Z,99988.06
2017-07-25T05:33:49.763Z,99983.09
2017-07-25T05:36:17.182Z,99978.91
2017-07-25T05:38:44.867Z,99979.13
2017-07-25T05:41:12.262Z,99981.84
2017-07-25T05:43:39.682Z,99976.70
2017-07-25T05:46:07.072Z,99972.30
2017-07-25T05:48:34.471Z,99966.67
2017-07-25T05:51:01.876Z,99963.27
2017-07-25T05:53:29.278Z,99962.06
2017-07-25T05:55:56.666Z,99964.80
2017-07-25T05:58:24.060Z,99971.83
2017-07-25T06:00:51.522Z,99961.06
2017-07-25T06:03:19.222Z,99960.94
2017-07-25T06:05:46.886Z,99960.16
2017-07-25T06:08:14.468Z,99947.91
2017-07-25T06:10:41.886Z,99948.47
2017-07-25T06:13:09.363Z,99942.38
2017-07-25T06:15:36.742Z,99940.55
2017-07-25T06:18:04.157Z,99927.11
2017-07-25T06:20:31.542Z,99937.45
2017-07-25T06:22:58.945Z,99923.78
2017-07-25T06:25:26.339Z,99926.83
2017-07-25T06:27:53.733Z,99924.89
2017-07-25T06:30:21.354Z,99923.41
2017-07-25T06:32:48.750Z,99923.88
2017-07-25T06:35:16.147Z,99922.31
2017-07-25T06:37:43.538Z,99918.17
2017-07-25T06:40:10.939Z,99917.95
2017-07-25T06:42:38.633Z,99901.69
2017-07-25T06:45:06.023Z,99909.30
2017-07-25T06:47:33.419Z,99908.42
2017-07-25T06:50:00.839Z,99918.55
2017-07-25T06:52:28.223Z,99924.07
2017-07-25T06:54:55.621Z,99925.17
2017-07-25T06:57:23.025Z,99923.11
2017-07-25T06:59:50.410Z,99926.98
2017-07-25T07:02:17.795Z,99934.19
2017-07-25T07:04:45.194Z,99931.89
2017-07-25T07:07:12.594Z,99925.50
2017-07-25T07:09:39.985Z,99923.84
2017-07-25T07:12:07.376Z,99919.15
2017-07-25T07:14:34.762Z,99927.16
2017-07-25T07:17:02.168Z,99922.81
2017-07-25T07:19:29.556Z,99924.89
2017-07-25T07:21:56.950Z,99923.83
2017-07-25T07:24:24.349Z,99920.23
2017-07-25T07:26:51.776Z,99924.34
2017-07-25T07:29:19.183Z,99918.91
2017-07-25T07:31:46.576Z,99922.87
2017-07-25T07:34:13.986Z,99918.22
2017-07-25T07:36:41.375Z,99920.11
2017-07-25T07:39:08.763Z,99924.58
2017-07-25T07:41:36.178Z,99923.92
2017-07-25T07:44:03.590Z,99920.25
2017-07-25T07:46:30.973Z,99927.52
2017-07-25T07:48:58.384Z,99925.73
2017-07-25T07:51:25.775Z,99924.91
2017-07-25T07:53:53.178Z,99934.52
2017-07-25T07:56:20.575Z,99929.69
2017-07-25T07:58:47.978Z,99933.00
2017-07-25T08:01:15.611Z,99931.57
2017-07-25T08:03:43.014Z,99931.20
2017-07-25T08:06:10.399Z,99930.05
2017-07-25T08:08:37.795Z,99928.40
2017-07-25T08:11:05.198Z,99927.19
2017-07-25T08:13:32.578Z,99933.64
2017-07-25T08:15:59.979Z,99927.47
2017-07-25T08:18:27.384Z,99923.47
2017-07-25T08:20:54.779Z,99928.06
2017-07-25T08:23:22.174Z,99932.53
2017-07-25T08:25:49.566Z,99931.70
2017-07-25T08:28:16.962Z,99933.45
2017-07-25T08:30:44.380Z,99929.53
2017-07-25T08:33:11.765Z,99931.75
2017-07-25T08:35:39.158Z,99936.42
2017-07-25T08:38:06.541Z,99933.84
2017-07-25T08:40:33.933Z,99937.09
2017-07-25T08:43:01.328Z,99938.66
2017-07-25T08:45:28.723Z,99937.33
2017-07-25T08:47:56.110Z,99938.91
2017-07-25T08:50:23.511Z,99937.39
2017-07-25T08:52:50.910Z,99935.81
2017-07-25T08:55:18.315Z,99939.23
2017-07-25T08:57:45.716Z,99936.23
2017-07-25T09:00:13.122Z,99935.38
2017-07-25T09:02:40.507Z,99931.89
2017-07-25T09:05:07.931Z,99926.25
2017-07-25T09:07:35.318Z,99928.80
2017-07-25T09:10:02.710Z,99924.17
2017-07-25T09:12:30.098Z,99921.12
2017-07-25T09:14:57.496Z,99923.54
2017-07-25T09:17:24.875Z,99924.66
2017-07-25T09:19:52.286Z,99921.38
2017-07-25T09:22:19.688Z,99923.55
2017-07-25T09:24:47.079Z,99921.52
2017-07-25T09:27:14.471Z,99925.69
2017-07-25T09:29:41.859Z,99923.09
2017-07-25T09:32:09.253Z,99919.27
2017-07-25T09:34:36.630Z,99915.68
2017-07-25T09:37:04.035Z,99913.59
2017-07-25T09:39:31.425Z,99912.61
2017-07-25T09:41:58.831Z,99908.66
2017-07-25T09:44:26.218Z,99899.14
2017-07-25T09:46:53.622Z,99905.16
2017-07-25T09:49:21.008Z,99901.58
2017-07-25T09:51:48.401Z,99894.06
2017-07-25T09:54:15.805Z,99897.91
2017-07-25T09:56:43.214Z,99895.33
2017-07-25T09:59:10.603Z,99894.59
2017-07-25T10:01:38.002Z,99894.51
2017-07-25T10:04:05.393Z,99900.86
2017-07-25T10:06:32.791Z,99890.90
2017-07-25T10:09:00.192Z,99892.05
2017-07-25T10:11:27.590Z,99885.64
2017-07-25T10:13:55.106Z,99882.88
2017-07-25T10:16:22.498Z,99887.91
2017-07-25T10:18:49.890Z,99878.15
2017-07-25T10:21:17.570Z,99877.23
2017-07-25T10:23:44.962Z,99880.05
2017-07-25T10:26:12.363Z,99877.45
2017-07-25T10:28:39.797Z,99870.94
2017-07-25T10:31:07.195Z,99870.10
2017-07-25T10:33:34.593Z,99867.22
2017-07-25T10:36:02.011Z,99868.05
2017-07-25T10:38:29.409Z,99869.25
2017-07-25T10:40:56.811Z,99873.31
2017-07-25T10:43:24.202Z,99866.63
2017-07-25T10:45:51.611Z,99864.78
2017-07-25T10:48:19.007Z,99868.52
2017-07-25T10:50:46.390Z,99855.02
2017-07-25T10:53:13.794Z,99853.13
2017-07-25T10:55:41.219Z,99857.56
2017-07-25T10:58:08.623Z,99855.61
2017-07-25T11:00:36.014Z,99857.25
2017-07-25T11:03:03.415Z,99854.31
2017-07-25T11:05:30.810Z,99844.78
2017-07-25T11:07:58.531Z,99854.14
2017-07-25T11:10:25.923Z,99853.42
2017-07-25T11:12:53.319Z,99852.23
2017-07-25T11:15:20.710Z,99843.52
2017-07-25T11:17:48.109Z,99848.99
2017-07-25T11:20:15.508Z,99851.99
2017-07-25T11:22:42.932Z,99849.35
2017-07-25T11:25:10.319Z,99847.25
2017-07-25T11:27:37.715Z,99848.83
2017-07-25T11:30:05.105Z,99838.32
2017-07-25T11:32:32.496Z,99843.69
2017-07-25T11:34:59.879Z,99845.45
2017-07-25T11:37:27.282Z,99842.86
2017-07-25T11:39:54.683Z,99841.13
2017-07-25T11:42:22.074Z,99838.70
2017-07-25T11:44:49.462Z,99834.59
2017-07-25T11:47:16.858Z,99836.53
2017-07-25T11:49:44.242Z,99836.34
2017-07-25T11:52:11.662Z,99828.75
2017-07-25T11:54:39.062Z,99829.80
2017-07-25T11:57:06.458Z,99840.44
2017-07-25T11:59:34.654Z,99840.53
2017-07-25T12:02:02.045Z,99833.17
2017-07-25T12:04:29.443Z,99828.05
2017-07-25T12:06:56.898Z,99834.78
2017-07-25T12:09:24.282Z,99826.74
2017-07-25T12:11:51.679Z,99831.23
2017-07-25T12:14:19.074Z,99829.98
2017-07-25T12:16:46.887Z,99826.48
2017-07-25T12:19:14.288Z,99822.33
2017-07-25T12:21:46.463Z,99822.30
2017-07-25T12:24:13.856Z,99817.42
2017-07-25T12:26:41.251Z,99817.93
2017-07-25T12:29:08.684Z,99819.63
2017-07-25T12:31:36.035Z,99825.25
2017-07-25T12:34:03.435Z,99819.99
2017-07-25T12:36:30.858Z,99820.30
2017-07-25T12:38:58.255Z,99818.37
2017-07-25T12:41:25.627Z,99812.61
2017-07-25T12:43:53.020Z,99815.00
2017-07-25T12:46:20.400Z,99811.30
2017-07-25T12:48:47.790Z,99810.53
2017-07-25T12:51:15.183Z,99810.41
2017-07-25T12:53:42.571Z,99806.48
2017-07-25T12:56:09.954Z,99804.48
2017-07-25T12:58:37.663Z,99803.45
2017-07-25T13:01:17.207Z,99803.91
2017-07-25T13:03:44.604Z,99805.16
2017-07-25T13:06:12.231Z,99806.53
2017-07-25T13:08:39.610Z,99807.98
2017-07-25T13:11:06.997Z,99804.02
2017-07-25T13:13:34.378Z,99805.14
2017-07-25T13:16:01.780Z,99805.92
2017-07-25T13:18:29.154Z,99807.98
2017-07-25T13:20:56.551Z,99809.87
2017-07-25T13:23:23.943Z,99808.63
2017-07-25T13:25:51.349Z,99806.04
2017-07-25T13:28:18.720Z,99808.34
2017-07-25T13:30:46.103Z,99806.04
2017-07-25T13:33:13.485Z,99805.34
2017-07-25T13:35:40.908Z,99804.09
2017-07-25T13:38:08.286Z,99800.59
2017-07-25T13:40:35.702Z,99795.86
2017-07-25T13:43:03.087Z,99791.77
2017-07-25T13:45:30.479Z,99796.59
2017-07-25T13:47:57.865Z,99789.53
2017-07-25T13:50:25.251Z,99794.48
2017-07-25T13:52:52.640Z,99792.78
2017-07-25T13:55:20.028Z,99796.67
2017-07-25T13:57:47.411Z,99794.61
2017-07-25T14:00:14.802Z,99798.42
2017-07-25T14:02:42.192Z,99800.22
2017-07-25T14:05:09.582Z,99801.08
2017-07-25T14:07:36.964Z,99800.67
2017-07-25T14:10:04.355Z,99807.63
2017-07-25T14:12:31.739Z,99798.30
2017-07-25T14:14:59.131Z,99794.65
2017-07-25T14:17:26.514Z,99789.77
2017-07-25T14:19:53.902Z,99787.90
2017-07-25T14:22:21.292Z,99791.68
2017-07-25T14:24:48.702Z,99789.98
2017-07-25T14:27:16.081Z,99796.27
2017-07-25T14:29:43.466Z,99795.67
2017-07-25T14:32:10.855Z,99789.13
2017-07-25T14:34:38.239Z,99788.19
2017-07-25T14:37:05.630Z,99791.64
2017-07-25T14:39:33.018Z,99788.14
2017-07-25T14:42:00.402Z,99778.05
2017-07-25T14:44:27.787Z,99777.03
2017-07-25T14:46:55.183Z,99775.57
2017-07-25T14:49:25.755Z,99772.58
2017-07-25T14:51:53.142Z,99777.02
2017-07-25T14:54:20.527Z,99780.94
2017-07-25T14:56:47.935Z,99775.27
2017-07-25T14:59:15.322Z,99779.95
2017-07-25T15:01:42.707Z,99774.95
2017-07-25T15:04:10.087Z,99775.30
2017-07-25T15:06:37.482Z,99773.17
2017-07-25T15:09:04.870Z,99775.05
2017-07-25T15:11:32.261Z,99773.20
2017-07-25T15:13:59.648Z,99780.63
2017-07-25T15:16:27.030Z,99775.53
2017-07-25T15:18:54.411Z,99772.27
2017-07-25T15:21:21.799Z,99780.27
2017-07-25T15:23:49.183Z,99784.61
2017-07-25T15:26:16.578Z,99783.25
2017-07-25T15:28:43.959Z,99780.84
2017-07-25T15:31:11.346Z,99786.39
2017-07-25T15:33:38.738Z,99792.83
2017-07-25T15:36:06.132Z,99789.74
2017-07-25T15:38:33.541Z,99795.61
2017-07-25T15:41:00.927Z,99808.30
2017-07-25T15:43:28.295Z,99800.55
2017-07-25T15:45:55.671Z,99817.96
2017-07-25T15:48:23.075Z,99818.83
2017-07-25T15:50:50.463Z,99823.09
2017-07-25T15:53:17.870Z,99815.64
2017-07-25T15:55:45.238Z,99821.41
2017-07-25T15:58:12.635Z,99819.20
2017-07-25T16:00:40.023Z,99817.84
2017-07-25T16:03:07.411Z,99829.38
2017-07-25T16:05:34.812Z,99825.52
2017-07-25T16:08:02.203Z,99824.38
2017-07-25T16:10:29.582Z,99835.76
2017-07-25T16:12:56.965Z,99834.70
2017-07-25T16:15:24.353Z,99835.84
2017-07-25T16:17:51.801Z,99845.64
2017-07-25T16:20:19.188Z,99835.55
2017-07-25T16:22:46.587Z,99847.18
2017-07-25T16:25:13.968Z,99842.16
2017-07-25T16:27:41.358Z,99839.38
2017-07-25T16:30:08.978Z,99841.27
2017-07-25T16:32:36.371Z,99842.48
2017-07-25T16:35:03.751Z,99842.13
2017-07-25T16:37:31.136Z,99850.34
2017-07-25T16:39:58.526Z,99845.18
2017-07-25T16:42:25.914Z,99850.19
2017-07-25T16:44:53.298Z,99848.77
2017-07-25T16:47:20.691Z,99850.09
2017-07-25T16:49:48.078Z,99849.59
2017-07-25T16:52:15.466Z,99856.86
2017-07-25T16:54:42.852Z,99852.45
2017-07-25T16:57:10.251Z,99850.83
2017-07-25T16:59:37.638Z,99859.22
2017-07-25T17:02:05.030Z,99856.77
2017-07-25T17:04:32.415Z,99858.36
2017-07-25T17:06:59.804Z,99867.88
2017-07-25T17:09:27.220Z,99863.63
2017-07-25T17:11:54.598Z,99860.19
2017-07-25T17:14:21.985Z,99871.72
2017-07-25T17:16:49.377Z,99868.47
2017-07-25T17:19:16.838Z,99870.83
2017-07-25T17:21:44.239Z,99868.47
2017-07-25T17:24:11.624Z,99868.41
2017-07-25T17:26:39.001Z,99868.48
2017-07-25T17:29:06.614Z,99868.73
2017-07-25T17:31:33.995Z,99871.81
2017-07-25T17:34:01.382Z,99875.59
2017-07-25T17:36:28.772Z,99874.59
2017-07-25T17:38:56.164Z,99880.37
2017-07-25T17:41:23.547Z,99887.13
2017-07-25T17:43:50.944Z,99887.37
2017-07-25T17:46:18.323Z,99886.90
2017-07-25T17:48:45.719Z,99884.80
2017-07-25T17:51:13.106Z,99888.05
2017-07-25T17:53:40.489Z,99883.04
2017-07-25T17:56:07.867Z,99888.88
2017-07-25T17:58:35.267Z,99889.38
2017-07-25T18:01:02.651Z,99896.33
2017-07-25T18:03:30.049Z,99900.78
2017-07-25T18:05:57.430Z,99904.73
2017-07-25T18:08:24.825Z,99888.33
2017-07-25T18:10:52.234Z,99906.12
2017-07-25T18:13:19.627Z,99896.35
2017-07-25T18:15:47.012Z,99895.78
2017-07-25T18:18:14.402Z,99898.88
2017-07-25T18:20:41.812Z,99894.42
2017-07-25T18:23:09.179Z,99899.88
2017-07-25T18:25:36.570Z,99896.25
2017-07-25T18:28:03.956Z,99902.84
2017-07-25T18:30:31.347Z,99907.22
2017-07-25T18:32:58.786Z,99912.61
2017-07-25T18:35:26.180Z,99910.86
2017-07-25T18:37:53.635Z,99914.53
2017-07-25T18:40:21.018Z,99917.08
2017-07-25T18:42:48.407Z,99911.63
2017-07-25T18:45:15.809Z,99912.00
2017-07-25T18:47:43.189Z,99917.98
2017-07-25T18:50:10.587Z,99908.72
2017-07-25T18:52:37.975Z,99912.34
2017-07-25T18:55:05.359Z,99918.52
2017-07-25T18:57:32.738Z,99913.14
2017-07-25T19:00:00.126Z,99915.36
2017-07-25T19:02:27.510Z,99922.62
2017-07-25T19:04:54.898Z,99919.11
2017-07-25T19:07:22.569Z,99923.91
2017-07-25T19:09:49.950Z,99923.05
2017-07-25T19:12:17.335Z,99929.16
2017-07-25T19:14:44.727Z,99927.38
2017-07-25T19:17:12.114Z,99929.58
2017-07-25T19:19:39.508Z,99933.27
2017-07-25T19:22:06.980Z,99933.05
2017-07-25T19:24:34.354Z,99930.05
2017-07-25T19:27:01.737Z,99942.30
2017-07-25T19:29:29.148Z,99933.59
2017-07-25T19:31:56.539Z,99936.69
2017-07-25T19:34:24.148Z,99935.89
2017-07-25T19:36:51.539Z,99940.23
2017-07-25T19:39:18.920Z,99939.58
2017-07-25T19:41:46.306Z,99938.89
2017-07-25T19:44:13.756Z,99941.68
2017-07-25T19:46:41.138Z,99942.67
2017-07-25T19:49:08.520Z,99938.56
2017-07-25T19:51:35.907Z,99940.55
2017-07-25T19:54:03.294Z,99941.23
2017-07-25T19:56:30.666Z,99939.19
2017-07-25T19:58:58.055Z,99930.31
2017-07-25T20:01:25.451Z,99942.86
2017-07-25T20:03:52.830Z,99936.19
2017-07-25T20:06:20.219Z,99927.63
2017-07-25T20:08:47.602Z,99938.90
2017-07-25T20:11:15.214Z,99934.95
2017-07-25T20:13:42.594Z,99940.13
2017-07-25T20:16:09.993Z,99935.36
2017-07-25T20:18:37.367Z,99938.00
2017-07-25T20:21:04.766Z,99935.94
2017-07-25T20:23:32.150Z,99947.56
2017-07-25T20:25:59.548Z,99931.43
2017-07-25T20:28:26.922Z,99939.45
2017-07-25T20:30:54.313Z,99939.28
2017-07-25T20:33:21.690Z,99937.65
2017-07-25T20:35:49.087Z,99936.00
2017-07-25T20:38:16.471Z,99940.04
2017-07-25T20:40:43.862Z,99943.32
2017-07-25T20:43:11.240Z,99932.58
2017-07-25T20:45:38.834Z,99926.39
2017-07-25T20:48:06.223Z,99932.36
2017-07-25T20:50:33.603Z,99930.30
2017-07-25T20:53:01.002Z,99934.55
2017-07-25T20:55:28.386Z,99933.77
2017-07-25T20:57:55.784Z,99935.91
2017-07-25T21:00:23.170Z,99933.16
2017-07-25T21:02:50.555Z,99931.56
2017-07-25T21:05:19.274Z,99932.53
2017-07-25T21:07:46.666Z,99933.01
2017-07-25T21:10:14.262Z,99925.42
2017-07-25T21:12:41.654Z,99921.94
2017-07-25T21:15:09.042Z,99932.06
2017-07-25T21:17:36.436Z,99935.53
2017-07-25T21:20:03.820Z,99931.81
2017-07-25T21:22:31.206Z,99927.22
2017-07-25T21:24:58.599Z,99935.69
2017-07-25T21:27:25.989Z,99935.05
2017-07-25T21:29:53.374Z,99939.95
2017-07-25T21:32:20.767Z,99933.16
2017-07-25T21:34:48.161Z,99934.43
2017-07-25T21:37:15.546Z,99934.25
2017-07-25T21:39:42.936Z,99931.71
2017-07-25T21:42:10.320Z,99935.75
2017-07-25T21:44:37.711Z,99936.80
2017-07-25T21:47:05.099Z,99927.41
2017-07-25T21:49:32.497Z,99925.91
2017-07-25T21:51:59.888Z,99927.44
2017-07-25T21:54:27.272Z,99921.04
2017-07-25T21:56:54.657Z,99923.20
2017-07-25T21:59:23.292Z,99924.40
2017-07-25T22:02:02.568Z,99919.29
2017-07-25T22:04:41.642Z,99926.15
2017-07-25T22:07:09.034Z,99920.23
2017-07-25T22:09:36.419Z,99913.18
2017-07-25T22:12:03.808Z,99923.42
2017-07-25T22:14:31.411Z,99920.86
2017-07-25T22:16:58.794Z,99916.17
2017-07-25T22:19:26.408Z,99918.60
2017-07-25T22:21:53.791Z,99930.27
2017-07-25T22:24:21.203Z,99923.74
2017-07-25T22:26:48.585Z,99936.86
2017-07-25T22:29:15.975Z,99942.54
2017-07-25T22:31:43.363Z,99932.59
2017-07-25T22:34:10.755Z,99936.37
2017-07-25T22:36:38.139Z,99926.63
2017-07-25T22:39:05.536Z,99933.14
2017-07-25T22:41:32.915Z,99926.89
2017-07-25T22:44:00.310Z,99929.58
2017-07-25T22:46:27.695Z,99924.77
2017-07-25T22:48:55.083Z,99922.14
2017-07-25T22:51:22.869Z,99923.56
2017-07-25T22:53:50.267Z,99922.93
2017-07-25T22:56:17.655Z,99916.39
2017-07-25T22:58:45.035Z,99918.73
2017-07-25T23:01:12.430Z,99910.90
2017-07-25T23:03:39.815Z,99907.95
2017-07-25T23:06:07.221Z,99905.27
2017-07-25T23:08:34.591Z,99902.27
2017-07-25T23:11:01.984Z,99899.59
2017-07-25T23:13:29.591Z,99916.72
2017-07-25T23:15:56.974Z,99913.36
2017-07-25T23:18:24.351Z,99917.27
2017-07-25T23:20:51.739Z,99917.97
2017-07-25T23:23:19.131Z,99907.75
2017-07-25T23:25:46.527Z,99908.23
2017-07-25T23:28:13.915Z,99902.92
2017-07-25T23:30:41.311Z,99902.45
2017-07-25T23:33:08.696Z,99899.80
2017-07-25T23:35:36.086Z,99900.09
2017-07-25T23:38:03.511Z,99900.46
2017-07-25T23:40:30.899Z,99901.00
2017-07-25T23:42:58.278Z,99907.16
2017-07-25T23:45:25.744Z,99903.88
2017-07-25T23:47:53.128Z,99899.36
2017-07-25T23:50:20.529Z,99897.80
2017-07-25T23:52:47.911Z,99896.77
2017-07-25T23:55:15.304Z,99896.08
2017-07-25T23:57:42.697Z,99901.61
